sensor_id;sensor_type;location;lat;lon;timestamp;P1;durP1;ratioP1;P2;durP2;ratioP2
53646;SDS011;39550;52.230;5.194;2023-08-24T00:02:07;6.03;;;3.22;;
53646;SDS011;39550;52.230;5.194;2023-08-24T00:04:32;4.22;;;2.85;;
53646;SDS011;39550;52.230;5.194;2023-08-24T00:06:59;5.22;;;2.95;;
53646;SDS011;39550;52.230;5.194;2023-08-24T00:09:24;4.60;;;2.88;;
53646;SDS011;39550;52.230;5.194;2023-08-24T00:11:50;5.00;;;2.90;;
53646;SDS011;39550;52.230;5.194;2023-08-24T00:14:15;5.60;;;2.70;;
53646;SDS011;39550;52.230;5.194;2023-08-24T00:16:41;5.18;;;3.13;;
53646;SDS011;39550;52.230;5.194;2023-08-24T00:19:07;5.25;;;2.97;;
53646;SDS011;39550;52.230;5.194;2023-08-24T00:21:33;4.95;;;2.90;;
53646;SDS011;39550;52.230;5.194;2023-08-24T00:24:01;4.90;;;2.65;;
53646;SDS011;39550;52.230;5.194;2023-08-24T00:26:26;4.78;;;2.80;;
53646;SDS011;39550;52.230;5.194;2023-08-24T00:28:52;4.72;;;2.70;;
53646;SDS011;39550;52.230;5.194;2023-08-24T00:31:17;4.72;;;3.30;;
53646;SDS011;39550;52.230;5.194;2023-08-24T00:33:43;4.60;;;3.00;;
53646;SDS011;39550;52.230;5.194;2023-08-24T00:36:08;4.85;;;2.90;;
53646;SDS011;39550;52.230;5.194;2023-08-24T00:38:34;5.07;;;2.97;;
53646;SDS011;39550;52.230;5.194;2023-08-24T00:40:59;4.70;;;3.03;;
53646;SDS011;39550;52.230;5.194;2023-08-24T00:43:26;5.68;;;3.20;;
53646;SDS011;39550;52.230;5.194;2023-08-24T00:45:52;5.80;;;3.50;;
53646;SDS011;39550;52.230;5.194;2023-08-24T00:48:20;4.97;;;3.23;;
53646;SDS011;39550;52.230;5.194;2023-08-24T00:50:51;5.47;;;3.30;;
53646;SDS011;39550;52.230;5.194;2023-08-24T00:53:18;4.60;;;2.72;;
53646;SDS011;39550;52.230;5.194;2023-08-24T00:55:44;5.55;;;3.13;;
53646;SDS011;39550;52.230;5.194;2023-08-24T00:58:10;5.53;;;3.10;;
53646;SDS011;39550;52.230;5.194;2023-08-24T01:00:37;6.50;;;3.10;;
53646;SDS011;39550;52.230;5.194;2023-08-24T01:03:02;4.78;;;3.40;;
53646;SDS011;39550;52.230;5.194;2023-08-24T01:05:28;5.25;;;3.70;;
53646;SDS011;39550;52.230;5.194;2023-08-24T01:07:54;5.47;;;3.42;;
53646;SDS011;39550;52.230;5.194;2023-08-24T01:10:20;4.72;;;3.30;;
53646;SDS011;39550;52.230;5.194;2023-08-24T01:18:16;5.13;;;3.25;;
53646;SDS011;39550;52.230;5.194;2023-08-24T01:20:45;4.57;;;3.05;;
53646;SDS011;39550;52.230;5.194;2023-08-24T01:25:54;5.15;;;3.35;;
53646;SDS011;39550;52.230;5.194;2023-08-24T01:28:29;6.15;;;3.97;;
53646;SDS011;39550;52.230;5.194;2023-08-24T01:30:56;5.13;;;3.25;;
53646;SDS011;39550;52.230;5.194;2023-08-24T01:33:22;4.85;;;3.20;;
53646;SDS011;39550;52.230;5.194;2023-08-24T01:35:47;5.35;;;3.38;;
53646;SDS011;39550;52.230;5.194;2023-08-24T01:38:13;6.40;;;3.60;;
53646;SDS011;39550;52.230;5.194;2023-08-24T01:43:30;5.97;;;3.75;;
53646;SDS011;39550;52.230;5.194;2023-08-24T01:46:01;6.78;;;4.00;;
53646;SDS011;39550;52.230;5.194;2023-08-24T01:48:29;5.55;;;3.80;;
53646;SDS011;39550;52.230;5.194;2023-08-24T01:50:59;6.50;;;3.92;;
53646;SDS011;39550;52.230;5.194;2023-08-24T01:53:27;5.40;;;3.60;;
53646;SDS011;39550;52.230;5.194;2023-08-24T01:55:55;4.40;;;3.22;;
53646;SDS011;39550;52.230;5.194;2023-08-24T01:58:20;5.20;;;3.83;;
53646;SDS011;39550;52.230;5.194;2023-08-24T02:00:45;6.70;;;3.95;;
53646;SDS011;39550;52.230;5.194;2023-08-24T02:03:11;5.70;;;4.10;;
53646;SDS011;39550;52.230;5.194;2023-08-24T02:05:37;5.25;;;3.60;;
53646;SDS011;39550;52.230;5.194;2023-08-24T02:08:02;6.15;;;3.63;;
53646;SDS011;39550;52.230;5.194;2023-08-24T02:10:28;6.03;;;3.78;;
53646;SDS011;39550;52.230;5.194;2023-08-24T02:12:53;6.00;;;3.30;;
53646;SDS011;39550;52.230;5.194;2023-08-24T02:15:18;5.30;;;3.83;;
53646;SDS011;39550;52.230;5.194;2023-08-24T02:17:44;7.50;;;3.83;;
53646;SDS011;39550;52.230;5.194;2023-08-24T02:20:10;5.13;;;3.83;;
53646;SDS011;39550;52.230;5.194;2023-08-24T02:22:36;5.22;;;3.53;;
53646;SDS011;39550;52.230;5.194;2023-08-24T02:25:02;5.57;;;4.00;;
53646;SDS011;39550;52.230;5.194;2023-08-24T02:27:29;5.97;;;4.03;;
53646;SDS011;39550;52.230;5.194;2023-08-24T02:29:55;6.13;;;4.45;;
53646;SDS011;39550;52.230;5.194;2023-08-24T02:32:20;6.10;;;4.10;;
53646;SDS011;39550;52.230;5.194;2023-08-24T02:34:46;6.90;;;4.10;;
53646;SDS011;39550;52.230;5.194;2023-08-24T02:37:11;5.20;;;3.83;;
53646;SDS011;39550;52.230;5.194;2023-08-24T02:39:37;5.43;;;4.13;;
53646;SDS011;39550;52.230;5.194;2023-08-24T02:42:02;8.75;;;4.93;;
53646;SDS011;39550;52.230;5.194;2023-08-24T02:44:27;6.30;;;4.25;;
53646;SDS011;39550;52.230;5.194;2023-08-24T02:46:53;7.47;;;4.07;;
53646;SDS011;39550;52.230;5.194;2023-08-24T02:49:19;6.72;;;4.60;;
53646;SDS011;39550;52.230;5.194;2023-08-24T02:51:44;6.40;;;4.30;;
53646;SDS011;39550;52.230;5.194;2023-08-24T02:54:09;6.10;;;4.30;;
53646;SDS011;39550;52.230;5.194;2023-08-24T02:56:35;5.80;;;4.00;;
53646;SDS011;39550;52.230;5.194;2023-08-24T02:59:00;6.35;;;4.45;;
53646;SDS011;39550;52.230;5.194;2023-08-24T03:01:26;6.55;;;4.57;;
53646;SDS011;39550;52.230;5.194;2023-08-24T03:03:51;7.57;;;4.85;;
53646;SDS011;39550;52.230;5.194;2023-08-24T03:06:17;6.25;;;4.30;;
53646;SDS011;39550;52.230;5.194;2023-08-24T03:08:42;6.43;;;4.05;;
53646;SDS011;39550;52.230;5.194;2023-08-24T03:11:08;6.63;;;4.93;;
53646;SDS011;39550;52.230;5.194;2023-08-24T03:13:36;6.73;;;5.03;;
53646;SDS011;39550;52.230;5.194;2023-08-24T03:16:05;6.75;;;4.25;;
53646;SDS011;39550;52.230;5.194;2023-08-24T03:18:30;6.60;;;4.80;;
53646;SDS011;39550;52.230;5.194;2023-08-24T03:20:56;6.25;;;4.45;;
53646;SDS011;39550;52.230;5.194;2023-08-24T03:23:22;6.20;;;4.43;;
53646;SDS011;39550;52.230;5.194;2023-08-24T03:25:47;6.55;;;5.13;;
53646;SDS011;39550;52.230;5.194;2023-08-24T03:28:20;6.85;;;5.00;;
53646;SDS011;39550;52.230;5.194;2023-08-24T03:30:46;6.25;;;4.70;;
53646;SDS011;39550;52.230;5.194;2023-08-24T03:33:13;6.35;;;4.22;;
53646;SDS011;39550;52.230;5.194;2023-08-24T03:35:39;6.38;;;4.32;;
53646;SDS011;39550;52.230;5.194;2023-08-24T03:38:05;5.57;;;4.43;;
53646;SDS011;39550;52.230;5.194;2023-08-24T03:40:30;7.53;;;5.28;;
53646;SDS011;39550;52.230;5.194;2023-08-24T03:42:56;7.65;;;4.88;;
53646;SDS011;39550;52.230;5.194;2023-08-24T03:45:21;8.05;;;4.63;;
53646;SDS011;39550;52.230;5.194;2023-08-24T03:47:47;7.88;;;4.75;;
53646;SDS011;39550;52.230;5.194;2023-08-24T03:50:13;7.47;;;4.32;;
53646;SDS011;39550;52.230;5.194;2023-08-24T03:52:39;6.97;;;4.72;;
53646;SDS011;39550;52.230;5.194;2023-08-24T03:55:05;8.48;;;5.30;;
53646;SDS011;39550;52.230;5.194;2023-08-24T03:57:31;8.10;;;5.25;;
53646;SDS011;39550;52.230;5.194;2023-08-24T03:59:57;6.53;;;4.60;;
53646;SDS011;39550;52.230;5.194;2023-08-24T04:02:23;9.23;;;5.18;;
53646;SDS011;39550;52.230;5.194;2023-08-24T04:04:48;6.85;;;4.43;;
53646;SDS011;39550;52.230;5.194;2023-08-24T04:07:15;7.53;;;4.80;;
53646;SDS011;39550;52.230;5.194;2023-08-24T04:09:41;6.38;;;4.40;;
53646;SDS011;39550;52.230;5.194;2023-08-24T04:12:07;6.85;;;4.57;;
53646;SDS011;39550;52.230;5.194;2023-08-24T04:14:33;6.07;;;4.55;;
53646;SDS011;39550;52.230;5.194;2023-08-24T04:16:58;8.20;;;4.93;;
53646;SDS011;39550;52.230;5.194;2023-08-24T04:19:24;6.90;;;4.20;;
53646;SDS011;39550;52.230;5.194;2023-08-24T04:21:49;6.50;;;5.00;;
53646;SDS011;39550;52.230;5.194;2023-08-24T04:24:15;6.75;;;4.57;;
53646;SDS011;39550;52.230;5.194;2023-08-24T04:26:41;6.78;;;4.70;;
53646;SDS011;39550;52.230;5.194;2023-08-24T04:29:06;6.97;;;4.78;;
53646;SDS011;39550;52.230;5.194;2023-08-24T04:31:32;6.88;;;5.05;;
53646;SDS011;39550;52.230;5.194;2023-08-24T04:33:57;6.93;;;4.97;;
53646;SDS011;39550;52.230;5.194;2023-08-24T04:36:22;6.38;;;4.97;;
53646;SDS011;39550;52.230;5.194;2023-08-24T04:38:48;7.60;;;5.07;;
53646;SDS011;39550;52.230;5.194;2023-08-24T04:41:13;6.90;;;4.82;;
53646;SDS011;39550;52.230;5.194;2023-08-24T04:43:39;6.65;;;5.22;;
53646;SDS011;39550;52.230;5.194;2023-08-24T04:46:04;8.15;;;5.40;;
53646;SDS011;39550;52.230;5.194;2023-08-24T04:48:30;7.97;;;5.07;;
53646;SDS011;39550;52.230;5.194;2023-08-24T04:50:58;6.80;;;4.50;;
53646;SDS011;39550;52.230;5.194;2023-08-24T04:53:24;6.32;;;4.82;;
53646;SDS011;39550;52.230;5.194;2023-08-24T04:55:50;8.00;;;5.70;;
53646;SDS011;39550;52.230;5.194;2023-08-24T04:58:16;7.90;;;4.97;;
53646;SDS011;39550;52.230;5.194;2023-08-24T05:00:42;6.57;;;4.60;;
53646;SDS011;39550;52.230;5.194;2023-08-24T05:03:08;7.25;;;5.10;;
53646;SDS011;39550;52.230;5.194;2023-08-24T05:05:34;9.75;;;5.47;;
53646;SDS011;39550;52.230;5.194;2023-08-24T05:08:01;6.57;;;5.10;;
53646;SDS011;39550;52.230;5.194;2023-08-24T05:10:31;7.80;;;4.80;;
53646;SDS011;39550;52.230;5.194;2023-08-24T05:12:59;7.45;;;5.82;;
53646;SDS011;39550;52.230;5.194;2023-08-24T05:15:24;7.53;;;5.22;;
53646;SDS011;39550;52.230;5.194;2023-08-24T05:17:56;7.40;;;4.70;;
53646;SDS011;39550;52.230;5.194;2023-08-24T05:20:24;7.38;;;5.13;;
53646;SDS011;39550;52.230;5.194;2023-08-24T05:22:55;6.88;;;5.13;;
53646;SDS011;39550;52.230;5.194;2023-08-24T05:25:21;6.80;;;5.13;;
53646;SDS011;39550;52.230;5.194;2023-08-24T05:27:46;8.30;;;5.40;;
53646;SDS011;39550;52.230;5.194;2023-08-24T05:30:12;6.00;;;4.57;;
53646;SDS011;39550;52.230;5.194;2023-08-24T05:32:38;6.80;;;4.95;;
53646;SDS011;39550;52.230;5.194;2023-08-24T05:35:07;6.18;;;4.93;;
53646;SDS011;39550;52.230;5.194;2023-08-24T05:37:34;7.05;;;4.85;;
53646;SDS011;39550;52.230;5.194;2023-08-24T05:40:00;6.75;;;4.95;;
53646;SDS011;39550;52.230;5.194;2023-08-24T05:42:26;6.85;;;4.78;;
53646;SDS011;39550;52.230;5.194;2023-08-24T05:44:51;7.32;;;5.45;;
53646;SDS011;39550;52.230;5.194;2023-08-24T05:47:17;7.45;;;5.30;;
53646;SDS011;39550;52.230;5.194;2023-08-24T05:49:46;8.77;;;5.90;;
53646;SDS011;39550;52.230;5.194;2023-08-24T05:52:14;6.97;;;5.07;;
53646;SDS011;39550;52.230;5.194;2023-08-24T05:54:39;6.85;;;5.10;;
53646;SDS011;39550;52.230;5.194;2023-08-24T05:57:05;7.43;;;5.50;;
53646;SDS011;39550;52.230;5.194;2023-08-24T05:59:31;8.10;;;5.35;;
53646;SDS011;39550;52.230;5.194;2023-08-24T06:01:58;7.22;;;5.00;;
53646;SDS011;39550;52.230;5.194;2023-08-24T06:04:23;8.13;;;4.88;;
53646;SDS011;39550;52.230;5.194;2023-08-24T06:06:49;8.20;;;4.97;;
53646;SDS011;39550;52.230;5.194;2023-08-24T06:09:14;7.50;;;5.45;;
53646;SDS011;39550;52.230;5.194;2023-08-24T06:11:42;7.75;;;5.53;;
53646;SDS011;39550;52.230;5.194;2023-08-24T06:14:08;9.10;;;6.13;;
53646;SDS011;39550;52.230;5.194;2023-08-24T06:16:33;6.85;;;5.55;;
53646;SDS011;39550;52.230;5.194;2023-08-24T06:18:59;6.80;;;4.95;;
53646;SDS011;39550;52.230;5.194;2023-08-24T06:21:24;7.93;;;4.95;;
53646;SDS011;39550;52.230;5.194;2023-08-24T06:23:50;7.28;;;5.38;;
53646;SDS011;39550;52.230;5.194;2023-08-24T06:26:16;7.95;;;5.43;;
53646;SDS011;39550;52.230;5.194;2023-08-24T06:28:42;8.35;;;5.35;;
53646;SDS011;39550;52.230;5.194;2023-08-24T06:31:08;6.57;;;4.93;;
53646;SDS011;39550;52.230;5.194;2023-08-24T06:33:33;7.00;;;5.10;;
53646;SDS011;39550;52.230;5.194;2023-08-24T06:36:01;8.23;;;5.50;;
53646;SDS011;39550;52.230;5.194;2023-08-24T06:38:27;8.13;;;5.47;;
53646;SDS011;39550;52.230;5.194;2023-08-24T06:40:53;8.82;;;5.72;;
53646;SDS011;39550;52.230;5.194;2023-08-24T06:43:18;7.63;;;5.68;;
53646;SDS011;39550;52.230;5.194;2023-08-24T06:45:44;7.95;;;5.50;;
53646;SDS011;39550;52.230;5.194;2023-08-24T06:48:09;7.63;;;5.20;;
53646;SDS011;39550;52.230;5.194;2023-08-24T06:50:35;7.97;;;5.72;;
53646;SDS011;39550;52.230;5.194;2023-08-24T06:53:02;8.45;;;5.68;;
53646;SDS011;39550;52.230;5.194;2023-08-24T06:55:28;6.82;;;5.47;;
53646;SDS011;39550;52.230;5.194;2023-08-24T06:57:54;8.38;;;5.80;;
53646;SDS011;39550;52.230;5.194;2023-08-24T07:00:19;9.27;;;5.60;;
53646;SDS011;39550;52.230;5.194;2023-08-24T07:02:46;8.00;;;5.57;;
53646;SDS011;39550;52.230;5.194;2023-08-24T07:05:12;7.90;;;5.15;;
53646;SDS011;39550;52.230;5.194;2023-08-24T07:07:38;6.95;;;5.10;;
53646;SDS011;39550;52.230;5.194;2023-08-24T07:10:03;9.02;;;6.00;;
53646;SDS011;39550;52.230;5.194;2023-08-24T07:12:29;8.73;;;6.10;;
53646;SDS011;39550;52.230;5.194;2023-08-24T07:14:55;8.63;;;5.70;;
53646;SDS011;39550;52.230;5.194;2023-08-24T07:17:20;8.45;;;5.82;;
53646;SDS011;39550;52.230;5.194;2023-08-24T07:19:46;8.80;;;5.90;;
53646;SDS011;39550;52.230;5.194;2023-08-24T07:22:11;7.32;;;5.85;;
53646;SDS011;39550;52.230;5.194;2023-08-24T07:24:37;9.60;;;6.32;;
53646;SDS011;39550;52.230;5.194;2023-08-24T07:27:02;9.25;;;5.78;;
53646;SDS011;39550;52.230;5.194;2023-08-24T07:29:30;10.95;;;6.30;;
53646;SDS011;39550;52.230;5.194;2023-08-24T07:31:56;8.25;;;5.90;;
53646;SDS011;39550;52.230;5.194;2023-08-24T07:34:22;8.40;;;6.40;;
53646;SDS011;39550;52.230;5.194;2023-08-24T07:36:48;9.20;;;6.40;;
53646;SDS011;39550;52.230;5.194;2023-08-24T07:39:14;8.68;;;6.40;;
53646;SDS011;39550;52.230;5.194;2023-08-24T07:41:42;8.32;;;6.20;;
53646;SDS011;39550;52.230;5.194;2023-08-24T07:44:07;9.00;;;5.95;;
53646;SDS011;39550;52.230;5.194;2023-08-24T07:46:35;8.88;;;5.93;;
53646;SDS011;39550;52.230;5.194;2023-08-24T07:49:01;6.95;;;5.53;;
53646;SDS011;39550;52.230;5.194;2023-08-24T07:51:26;10.15;;;6.45;;
53646;SDS011;39550;52.230;5.194;2023-08-24T07:53:53;7.70;;;6.18;;
53646;SDS011;39550;52.230;5.194;2023-08-24T07:56:18;9.07;;;6.30;;
53646;SDS011;39550;52.230;5.194;2023-08-24T07:58:44;9.38;;;7.03;;
53646;SDS011;39550;52.230;5.194;2023-08-24T08:01:10;9.35;;;6.03;;
53646;SDS011;39550;52.230;5.194;2023-08-24T08:03:36;8.45;;;6.43;;
53646;SDS011;39550;52.230;5.194;2023-08-24T08:06:01;9.25;;;6.82;;
53646;SDS011;39550;52.230;5.194;2023-08-24T08:08:28;9.52;;;7.20;;
53646;SDS011;39550;52.230;5.194;2023-08-24T08:11:00;9.35;;;6.68;;
53646;SDS011;39550;52.230;5.194;2023-08-24T08:13:30;10.00;;;7.47;;
53646;SDS011;39550;52.230;5.194;2023-08-24T08:16:02;8.27;;;6.50;;
53646;SDS011;39550;52.230;5.194;2023-08-24T08:18:31;13.15;;;7.50;;
53646;SDS011;39550;52.230;5.194;2023-08-24T08:20:58;10.40;;;7.35;;
53646;SDS011;39550;52.230;5.194;2023-08-24T08:23:23;11.30;;;8.52;;
53646;SDS011;39550;52.230;5.194;2023-08-24T08:25:49;14.27;;;9.50;;
53646;SDS011;39550;52.230;5.194;2023-08-24T08:28:15;14.93;;;8.93;;
53646;SDS011;39550;52.230;5.194;2023-08-24T08:30:41;11.40;;;8.40;;
53646;SDS011;39550;52.230;5.194;2023-08-24T08:33:06;11.38;;;8.43;;
53646;SDS011;39550;52.230;5.194;2023-08-24T08:35:33;10.32;;;8.15;;
53646;SDS011;39550;52.230;5.194;2023-08-24T08:37:58;10.55;;;8.27;;
53646;SDS011;39550;52.230;5.194;2023-08-24T08:40:24;10.75;;;7.60;;
53646;SDS011;39550;52.230;5.194;2023-08-24T08:42:57;13.65;;;8.05;;
53646;SDS011;39550;52.230;5.194;2023-08-24T08:45:26;10.15;;;7.18;;
53646;SDS011;39550;52.230;5.194;2023-08-24T08:48:00;10.55;;;7.95;;
53646;SDS011;39550;52.230;5.194;2023-08-24T08:50:26;8.88;;;7.38;;
53646;SDS011;39550;52.230;5.194;2023-08-24T08:52:52;10.15;;;7.55;;
53646;SDS011;39550;52.230;5.194;2023-08-24T08:55:18;9.70;;;7.90;;
53646;SDS011;39550;52.230;5.194;2023-08-24T08:57:47;10.95;;;8.07;;
53646;SDS011;39550;52.230;5.194;2023-08-24T09:00:14;9.38;;;7.45;;
53646;SDS011;39550;52.230;5.194;2023-08-24T09:02:45;12.33;;;7.67;;
53646;SDS011;39550;52.230;5.194;2023-08-24T09:05:13;10.55;;;7.22;;
53646;SDS011;39550;52.230;5.194;2023-08-24T09:07:40;11.88;;;8.05;;
53646;SDS011;39550;52.230;5.194;2023-08-24T09:10:06;12.00;;;8.80;;
53646;SDS011;39550;52.230;5.194;2023-08-24T09:12:33;9.75;;;7.70;;
53646;SDS011;39550;52.230;5.194;2023-08-24T09:14:59;11.23;;;7.45;;
53646;SDS011;39550;52.230;5.194;2023-08-24T09:17:24;11.65;;;7.82;;
53646;SDS011;39550;52.230;5.194;2023-08-24T09:19:50;10.45;;;7.65;;
53646;SDS011;39550;52.230;5.194;2023-08-24T09:22:17;9.23;;;7.57;;
53646;SDS011;39550;52.230;5.194;2023-08-24T09:24:43;10.68;;;7.88;;
53646;SDS011;39550;52.230;5.194;2023-08-24T09:27:16;10.25;;;8.05;;
53646;SDS011;39550;52.230;5.194;2023-08-24T09:29:42;11.20;;;7.60;;
53646;SDS011;39550;52.230;5.194;2023-08-24T09:32:08;11.30;;;7.82;;
53646;SDS011;39550;52.230;5.194;2023-08-24T09:34:35;11.05;;;8.05;;
53646;SDS011;39550;52.230;5.194;2023-08-24T09:37:02;11.90;;;7.95;;
53646;SDS011;39550;52.230;5.194;2023-08-24T09:39:29;9.02;;;7.22;;
53646;SDS011;39550;52.230;5.194;2023-08-24T09:41:54;10.70;;;7.63;;
53646;SDS011;39550;52.230;5.194;2023-08-24T09:44:28;9.98;;;7.38;;
53646;SDS011;39550;52.230;5.194;2023-08-24T09:46:53;11.38;;;7.28;;
53646;SDS011;39550;52.230;5.194;2023-08-24T09:49:19;9.77;;;7.03;;
53646;SDS011;39550;52.230;5.194;2023-08-24T09:51:44;9.52;;;7.50;;
53646;SDS011;39550;52.230;5.194;2023-08-24T09:54:11;8.82;;;7.10;;
53646;SDS011;39550;52.230;5.194;2023-08-24T10:00:02;9.95;;;7.38;;
53646;SDS011;39550;52.230;5.194;2023-08-24T10:06:26;8.65;;;6.72;;
53646;SDS011;39550;52.230;5.194;2023-08-24T10:19:34;10.35;;;6.50;;
53646;SDS011;39550;52.230;5.194;2023-08-24T10:22:23;10.13;;;7.22;;
53646;SDS011;39550;52.230;5.194;2023-08-24T10:28:01;8.70;;;6.35;;
53646;SDS011;39550;52.230;5.194;2023-08-24T10:30:28;8.45;;;6.35;;
53646;SDS011;39550;52.230;5.194;2023-08-24T10:32:55;9.07;;;6.65;;
53646;SDS011;39550;52.230;5.194;2023-08-24T10:35:23;9.20;;;6.45;;
53646;SDS011;39550;52.230;5.194;2023-08-24T10:37:52;8.27;;;6.17;;
53646;SDS011;39550;52.230;5.194;2023-08-24T10:40:31;7.78;;;6.10;;
53646;SDS011;39550;52.230;5.194;2023-08-24T10:42:57;10.30;;;6.78;;
53646;SDS011;39550;52.230;5.194;2023-08-24T10:45:23;9.38;;;6.55;;
53646;SDS011;39550;52.230;5.194;2023-08-24T10:47:52;7.25;;;5.68;;
53646;SDS011;39550;52.230;5.194;2023-08-24T10:50:19;7.38;;;6.30;;
53646;SDS011;39550;52.230;5.194;2023-08-24T10:52:44;7.40;;;5.50;;
53646;SDS011;39550;52.230;5.194;2023-08-24T10:55:26;7.53;;;6.22;;
53646;SDS011;39550;52.230;5.194;2023-08-24T10:57:59;8.38;;;5.78;;
53646;SDS011;39550;52.230;5.194;2023-08-24T11:00:31;7.75;;;5.50;;
53646;SDS011;39550;52.230;5.194;2023-08-24T11:02:57;7.85;;;5.80;;
53646;SDS011;39550;52.230;5.194;2023-08-24T11:07:58;7.10;;;5.78;;
53646;SDS011;39550;52.230;5.194;2023-08-24T11:15:40;8.45;;;5.95;;
53646;SDS011;39550;52.230;5.194;2023-08-24T11:18:19;7.43;;;5.40;;
53646;SDS011;39550;52.230;5.194;2023-08-24T11:20:56;7.80;;;5.32;;
53646;SDS011;39550;52.230;5.194;2023-08-24T11:23:25;7.30;;;5.45;;
53646;SDS011;39550;52.230;5.194;2023-08-24T11:25:52;7.10;;;5.75;;
53646;SDS011;39550;52.230;5.194;2023-08-24T11:28:21;6.93;;;5.03;;
53646;SDS011;39550;52.230;5.194;2023-08-24T11:30:47;7.82;;;5.72;;
53646;SDS011;39550;52.230;5.194;2023-08-24T11:33:13;6.82;;;4.97;;
53646;SDS011;39550;52.230;5.194;2023-08-24T11:35:40;7.88;;;5.50;;
53646;SDS011;39550;52.230;5.194;2023-08-24T11:38:08;7.78;;;5.47;;
53646;SDS011;39550;52.230;5.194;2023-08-24T11:40:34;7.72;;;5.45;;
53646;SDS011;39550;52.230;5.194;2023-08-24T11:43:00;7.20;;;5.38;;
53646;SDS011;39550;52.230;5.194;2023-08-24T11:45:35;7.85;;;5.55;;
53646;SDS011;39550;52.230;5.194;2023-08-24T11:48:02;6.80;;;5.35;;
53646;SDS011;39550;52.230;5.194;2023-08-24T11:50:29;6.93;;;5.32;;
53646;SDS011;39550;52.230;5.194;2023-08-24T11:52:55;7.03;;;5.18;;
53646;SDS011;39550;52.230;5.194;2023-08-24T11:55:24;7.60;;;5.70;;
53646;SDS011;39550;52.230;5.194;2023-08-24T11:57:51;7.30;;;5.35;;
53646;SDS011;39550;52.230;5.194;2023-08-24T12:00:20;7.53;;;5.50;;
53646;SDS011;39550;52.230;5.194;2023-08-24T12:02:46;8.55;;;5.35;;
53646;SDS011;39550;52.230;5.194;2023-08-24T12:05:20;7.63;;;5.55;;
53646;SDS011;39550;52.230;5.194;2023-08-24T12:07:48;6.95;;;5.28;;
53646;SDS011;39550;52.230;5.194;2023-08-24T12:10:13;7.43;;;5.75;;
53646;SDS011;39550;52.230;5.194;2023-08-24T12:12:39;7.05;;;5.50;;
53646;SDS011;39550;52.230;5.194;2023-08-24T12:15:06;8.98;;;5.75;;
53646;SDS011;39550;52.230;5.194;2023-08-24T12:20:02;7.88;;;5.70;;
53646;SDS011;39550;52.230;5.194;2023-08-24T12:22:31;8.13;;;5.20;;
53646;SDS011;39550;52.230;5.194;2023-08-24T12:24:57;6.60;;;5.13;;
53646;SDS011;39550;52.230;5.194;2023-08-24T12:27:23;8.52;;;6.47;;
53646;SDS011;39550;52.230;5.194;2023-08-24T12:29:51;7.45;;;5.95;;
53646;SDS011;39550;52.230;5.194;2023-08-24T12:32:17;7.25;;;5.50;;
53646;SDS011;39550;52.230;5.194;2023-08-24T12:34:50;7.22;;;5.15;;
53646;SDS011;39550;52.230;5.194;2023-08-24T12:37:19;7.88;;;5.55;;
53646;SDS011;39550;52.230;5.194;2023-08-24T12:39:45;8.57;;;6.32;;
53646;SDS011;39550;52.230;5.194;2023-08-24T12:42:10;8.35;;;6.22;;
53646;SDS011;39550;52.230;5.194;2023-08-24T12:44:36;9.05;;;6.20;;
53646;SDS011;39550;52.230;5.194;2023-08-24T12:47:02;7.72;;;5.43;;
53646;SDS011;39550;52.230;5.194;2023-08-24T12:49:27;8.23;;;6.30;;
53646;SDS011;39550;52.230;5.194;2023-08-24T12:51:55;7.50;;;6.07;;
53646;SDS011;39550;52.230;5.194;2023-08-24T12:54:20;10.55;;;6.00;;
53646;SDS011;39550;52.230;5.194;2023-08-24T12:56:47;8.57;;;6.25;;
53646;SDS011;39550;52.230;5.194;2023-08-24T12:59:12;7.60;;;5.50;;
53646;SDS011;39550;52.230;5.194;2023-08-24T13:01:37;7.97;;;6.13;;
53646;SDS011;39550;52.230;5.194;2023-08-24T13:04:03;8.32;;;6.10;;
53646;SDS011;39550;52.230;5.194;2023-08-24T13:06:32;9.93;;;6.30;;
53646;SDS011;39550;52.230;5.194;2023-08-24T13:08:57;7.93;;;6.30;;
53646;SDS011;39550;52.230;5.194;2023-08-24T13:11:23;7.97;;;6.50;;
53646;SDS011;39550;52.230;5.194;2023-08-24T13:13:49;8.07;;;6.90;;
53646;SDS011;39550;52.230;5.194;2023-08-24T13:16:14;7.97;;;6.88;;
53646;SDS011;39550;52.230;5.194;2023-08-24T13:18:40;8.68;;;6.18;;
53646;SDS011;39550;52.230;5.194;2023-08-24T13:21:06;8.32;;;6.47;;
53646;SDS011;39550;52.230;5.194;2023-08-24T13:23:32;8.52;;;6.65;;
53646;SDS011;39550;52.230;5.194;2023-08-24T13:25:58;8.45;;;6.93;;
53646;SDS011;39550;52.230;5.194;2023-08-24T13:28:24;8.85;;;7.60;;
53646;SDS011;39550;52.230;5.194;2023-08-24T13:30:50;10.75;;;8.07;;
53646;SDS011;39550;52.230;5.194;2023-08-24T13:33:15;8.95;;;6.95;;
53646;SDS011;39550;52.230;5.194;2023-08-24T13:35:40;9.10;;;6.65;;
53646;SDS011;39550;52.230;5.194;2023-08-24T13:38:06;9.20;;;7.05;;
53646;SDS011;39550;52.230;5.194;2023-08-24T13:40:31;8.52;;;6.78;;
53646;SDS011;39550;52.230;5.194;2023-08-24T13:42:57;8.55;;;6.75;;
53646;SDS011;39550;52.230;5.194;2023-08-24T13:45:22;8.57;;;7.15;;
53646;SDS011;39550;52.230;5.194;2023-08-24T13:47:48;9.10;;;7.00;;
53646;SDS011;39550;52.230;5.194;2023-08-24T13:50:13;8.02;;;6.90;;
53646;SDS011;39550;52.230;5.194;2023-08-24T13:52:38;9.32;;;7.20;;
53646;SDS011;39550;52.230;5.194;2023-08-24T13:55:05;12.15;;;8.45;;
53646;SDS011;39550;52.230;5.194;2023-08-24T13:57:31;9.35;;;7.78;;
53646;SDS011;39550;52.230;5.194;2023-08-24T13:59:56;11.02;;;7.78;;
53646;SDS011;39550;52.230;5.194;2023-08-24T14:02:23;9.07;;;7.60;;
53646;SDS011;39550;52.230;5.194;2023-08-24T14:04:48;8.77;;;7.10;;
53646;SDS011;39550;52.230;5.194;2023-08-24T14:07:14;8.88;;;7.35;;
53646;SDS011;39550;52.230;5.194;2023-08-24T14:09:39;8.75;;;7.25;;
53646;SDS011;39550;52.230;5.194;2023-08-24T14:12:05;10.13;;;8.18;;
53646;SDS011;39550;52.230;5.194;2023-08-24T14:14:32;11.40;;;8.30;;
53646;SDS011;39550;52.230;5.194;2023-08-24T14:16:57;11.52;;;8.38;;
53646;SDS011;39550;52.230;5.194;2023-08-24T14:19:23;9.27;;;7.90;;
53646;SDS011;39550;52.230;5.194;2023-08-24T14:21:49;8.90;;;7.78;;
53646;SDS011;39550;52.230;5.194;2023-08-24T14:24:14;10.75;;;8.10;;
53646;SDS011;39550;52.230;5.194;2023-08-24T14:26:40;9.15;;;8.15;;
53646;SDS011;39550;52.230;5.194;2023-08-24T14:29:10;10.60;;;8.52;;
53646;SDS011;39550;52.230;5.194;2023-08-24T14:31:36;9.63;;;8.07;;
53646;SDS011;39550;52.230;5.194;2023-08-24T14:34:01;8.88;;;7.55;;
53646;SDS011;39550;52.230;5.194;2023-08-24T14:36:28;8.95;;;7.47;;
53646;SDS011;39550;52.230;5.194;2023-08-24T14:38:54;10.25;;;7.90;;
53646;SDS011;39550;52.230;5.194;2023-08-24T14:41:19;9.25;;;8.10;;
53646;SDS011;39550;52.230;5.194;2023-08-24T14:43:44;10.23;;;7.80;;
53646;SDS011;39550;52.230;5.194;2023-08-24T14:46:11;9.90;;;8.40;;
53646;SDS011;39550;52.230;5.194;2023-08-24T14:48:36;9.27;;;7.85;;
53646;SDS011;39550;52.230;5.194;2023-08-24T14:51:02;9.65;;;7.70;;
53646;SDS011;39550;52.230;5.194;2023-08-24T14:53:28;11.55;;;8.07;;
53646;SDS011;39550;52.230;5.194;2023-08-24T14:55:56;9.02;;;8.00;;
53646;SDS011;39550;52.230;5.194;2023-08-24T14:58:22;10.00;;;7.90;;
53646;SDS011;39550;52.230;5.194;2023-08-24T15:00:49;9.48;;;8.02;;
53646;SDS011;39550;52.230;5.194;2023-08-24T15:03:15;11.18;;;7.13;;
53646;SDS011;39550;52.230;5.194;2023-08-24T15:05:45;7.93;;;7.00;;
53646;SDS011;39550;52.230;5.194;2023-08-24T15:08:13;9.43;;;7.63;;
53646;SDS011;39550;52.230;5.194;2023-08-24T15:10:38;10.15;;;7.65;;
53646;SDS011;39550;52.230;5.194;2023-08-24T15:13:04;9.10;;;7.55;;
53646;SDS011;39550;52.230;5.194;2023-08-24T15:15:30;9.05;;;7.40;;
53646;SDS011;39550;52.230;5.194;2023-08-24T15:18:02;10.80;;;8.32;;
53646;SDS011;39550;52.230;5.194;2023-08-24T15:20:28;9.00;;;7.68;;
53646;SDS011;39550;52.230;5.194;2023-08-24T15:22:54;8.63;;;7.65;;
53646;SDS011;39550;52.230;5.194;2023-08-24T15:25:19;10.40;;;7.85;;